createdAt,value
2018-07-26T00:01:53.186Z,6.00
2018-07-26T00:04:24.431Z,9.33
2018-07-26T00:06:56.134Z,8.00
2018-07-26T00:09:29.232Z,8.00
2018-07-26T00:12:01.288Z,6.00
2018-07-26T00:14:33.703Z,6.20
2018-07-26T00:17:05.969Z,7.25
2018-07-26T00:19:39.534Z,6.80
2018-07-26T00:22:11.418Z,8.33
2018-07-26T00:24:47.839Z,6.00
2018-07-26T00:27:19.321Z,6.00
2018-07-26T00:29:53.661Z,6.14
2018-07-26T00:32:26.009Z,6.00
2018-07-26T00:34:57.254Z,6.33
2018-07-26T00:37:29.547Z,6.80
2018-07-26T00:40:01.814Z,6.25
2018-07-26T00:42:37.661Z,6.29
2018-07-26T00:45:09.163Z,6.67
2018-07-26T00:47:40.458Z,7.00
2018-07-26T00:50:12.783Z,6.00
2018-07-26T00:52:45.818Z,6.00
2018-07-26T00:55:18.332Z,6.80
2018-07-26T00:57:50.506Z,7.50
2018-07-26T01:00:22.763Z,7.00
2018-07-26T01:02:56.952Z,6.00
2018-07-26T01:05:29.130Z,8.00
2018-07-26T01:08:00.660Z,7.00
2018-07-26T01:10:35.459Z,6.00
2018-07-26T01:13:11.258Z,5.50
2018-07-26T01:15:43.477Z,6.80
2018-07-26T01:18:15.781Z,5.80
2018-07-26T01:20:48.123Z,6.00
2018-07-26T01:23:19.625Z,6.00
2018-07-26T01:25:51.994Z,7.40
2018-07-26T01:28:23.954Z,6.00
2018-07-26T01:30:56.210Z,5.80
2018-07-26T01:33:30.799Z,6.00
2018-07-26T01:36:03.040Z,6.40
2018-07-26T01:38:36.224Z,6.75
2018-07-26T01:41:09.394Z,7.40
2018-07-26T01:47:23.915Z,9.20
2018-07-26T01:49:57.086Z,7.50
2018-07-26T01:52:29.639Z,7.00
2018-07-26T01:55:02.030Z,6.40
2018-07-26T01:57:33.284Z,7.33
2018-07-26T02:00:08.858Z,6.25
2018-07-26T02:02:40.377Z,7.33
2018-07-26T02:07:39.469Z,7.43
2018-07-26T02:10:10.767Z,7.33
2018-07-26T02:12:42.993Z,8.60
2018-07-26T02:15:17.745Z,7.67
2018-07-26T02:17:49.827Z,7.25
2018-07-26T02:20:21.848Z,6.25
2018-07-26T02:22:55.247Z,7.75
2018-07-26T02:25:26.462Z,7.33
2018-07-26T02:27:57.833Z,6.00
2018-07-26T02:30:30.128Z,6.00
2018-07-26T02:33:02.337Z,6.60
2018-07-26T02:35:36.601Z,6.14
2018-07-26T02:38:09.243Z,7.00
2018-07-26T02:40:42.417Z,7.40
2018-07-26T02:43:20.451Z,6.00
2018-07-26T02:45:55.425Z,7.00
2018-07-26T02:48:27.878Z,7.40
2018-07-26T02:51:00.793Z,7.00
2018-07-26T02:53:33.294Z,7.25
2018-07-26T02:56:05.375Z,6.00
2018-07-26T02:58:36.563Z,6.33
2018-07-26T03:01:09.150Z,8.00
2018-07-26T03:03:41.354Z,6.00
2018-07-26T03:06:16.537Z,6.00
2018-07-26T03:08:49.925Z,7.40
2018-07-26T03:11:21.892Z,6.67
2018-07-26T03:13:59.112Z,5.17
2018-07-26T03:16:31.615Z,6.00
2018-07-26T03:19:02.902Z,8.00
2018-07-26T03:21:36.718Z,5.40
2018-07-26T03:24:08.085Z,7.33
2018-07-26T03:26:40.266Z,5.67
2018-07-26T03:29:12.498Z,6.80
2018-07-26T03:31:43.688Z,5.00
2018-07-26T03:34:16.144Z,6.00
2018-07-26T03:36:49.936Z,6.00
2018-07-26T03:39:22.278Z,6.40
2018-07-26T03:41:55.242Z,6.80
2018-07-26T03:44:28.261Z,7.00
2018-07-26T03:47:03.893Z,6.00
2018-07-26T03:49:40.911Z,6.43
2018-07-26T03:52:13.060Z,6.00
2018-07-26T03:54:46.684Z,7.00
2018-07-26T03:57:17.954Z,7.33
2018-07-26T03:59:52.269Z,5.43
2018-07-26T04:02:24.979Z,6.00
2018-07-26T04:04:56.306Z,9.67
2018-07-26T04:07:30.041Z,7.75
2018-07-26T04:10:04.486Z,7.50
2018-07-26T04:12:37.234Z,7.00
2018-07-26T04:15:09.975Z,6.00
2018-07-26T04:17:51.006Z,7.20
2018-07-26T04:20:26.511Z,7.00
2018-07-26T04:22:58.928Z,8.00
2018-07-26T04:25:32.192Z,6.25
2018-07-26T04:28:07.125Z,7.40
2018-07-26T04:30:40.517Z,7.00
2018-07-26T04:33:12.710Z,7.00
2018-07-26T04:35:48.538Z,7.00
2018-07-26T04:38:23.709Z,7.00
2018-07-26T04:40:56.176Z,7.75
2018-07-26T04:43:28.166Z,7.00
2018-07-26T04:46:00.742Z,8.33
2018-07-26T04:48:35.729Z,8.25
2018-07-26T04:51:09.860Z,8.33
2018-07-26T04:53:41.068Z,7.67
2018-07-26T04:56:12.338Z,8.00
2018-07-26T04:58:44.488Z,7.33
2018-07-26T05:01:17.421Z,9.00
2018-07-26T05:03:50.660Z,8.00
2018-07-26T05:06:27.687Z,7.40
2018-07-26T05:08:59.575Z,8.00
2018-07-26T05:11:31.766Z,7.25
2018-07-26T05:14:03.824Z,8.00
2018-07-26T05:16:35.666Z,8.00
2018-07-26T05:19:06.912Z,8.00
2018-07-26T05:21:41.551Z,8.00
2018-07-26T05:24:13.376Z,8.33
2018-07-26T05:26:47.784Z,9.33
2018-07-26T05:29:20.007Z,7.75
2018-07-26T05:31:52.843Z,7.00
2018-07-26T05:34:26.579Z,9.00
2018-07-26T05:36:58.206Z,7.67
2018-07-26T05:39:29.533Z,9.33
2018-07-26T05:42:01.758Z,8.50
2018-07-26T05:44:34.238Z,8.25
2018-07-26T05:47:07.655Z,8.00
2018-07-26T05:49:40.485Z,9.00
2018-07-26T05:52:12.704Z,8.00
2018-07-26T05:54:45.315Z,9.00
2018-07-26T05:57:19.009Z,8.50
2018-07-26T05:59:50.843Z,9.00
2018-07-26T06:02:24.283Z,9.75
2018-07-26T06:04:56.503Z,8.00
2018-07-26T06:07:28.448Z,9.00
2018-07-26T06:10:00.101Z,8.67
2018-07-26T06:12:31.931Z,8.67
2018-07-26T06:15:08.328Z,9.00
2018-07-26T06:17:40.454Z,9.00
2018-07-26T06:20:12.820Z,8.33
2018-07-26T06:22:46.028Z,10.33
2018-07-26T06:25:17.540Z,10.00
2018-07-26T06:27:49.079Z,9.00
2018-07-26T06:30:24.248Z,8.25
2018-07-26T06:32:56.736Z,8.00
2018-07-26T06:35:28.692Z,8.00
2018-07-26T06:38:05.334Z,9.00
2018-07-26T06:40:40.655Z,10.00
2018-07-26T06:43:13.490Z,8.75
2018-07-26T06:45:46.817Z,9.00
2018-07-26T06:48:19.475Z,8.25
2018-07-26T06:50:52.316Z,10.00
2018-07-26T06:53:23.624Z,10.33
2018-07-26T06:55:57.265Z,10.00
2018-07-26T06:58:30.379Z,8.33
2018-07-26T07:01:02.567Z,9.00
2018-07-26T07:03:33.923Z,10.33
2018-07-26T07:06:05.245Z,10.33
2018-07-26T07:08:38.540Z,10.67
2018-07-26T07:11:13.010Z,9.67
2018-07-26T07:13:45.068Z,10.33
2018-07-26T07:16:19.710Z,10.00
2018-07-26T07:18:53.809Z,10.33
2018-07-26T07:21:26.176Z,11.67
2018-07-26T07:23:58.156Z,11.33
2018-07-26T07:26:31.406Z,11.00
2018-07-26T07:29:07.616Z,9.33
2018-07-26T07:31:42.376Z,9.67
2018-07-26T07:34:13.998Z,9.00
2018-07-26T07:36:49.275Z,11.33
2018-07-26T07:39:21.129Z,11.33
2018-07-26T07:41:52.795Z,10.67
2018-07-26T07:44:28.280Z,9.00
2018-07-26T07:46:59.818Z,9.33
2018-07-26T07:49:31.241Z,9.33
2018-07-26T07:52:04.456Z,10.00
2018-07-26T07:54:35.685Z,10.67
2018-07-26T07:57:07.868Z,9.33
2018-07-26T07:59:39.528Z,10.67
2018-07-26T08:02:12.910Z,10.33
2018-07-26T08:04:45.038Z,10.67
2018-07-26T08:07:16.481Z,10.00
2018-07-26T08:09:49.699Z,9.00
2018-07-26T08:12:24.328Z,8.67
2018-07-26T08:14:58.522Z,10.00
2018-07-26T08:17:31.165Z,10.00
2018-07-26T08:20:03.390Z,10.33
2018-07-26T08:22:36.581Z,10.67
2018-07-26T08:25:10.154Z,9.33
2018-07-26T08:27:43.350Z,9.00
2018-07-26T08:30:19.132Z,11.00
2018-07-26T08:32:51.115Z,10.33
2018-07-26T08:35:25.284Z,9.67
2018-07-26T08:37:57.255Z,10.33
2018-07-26T08:40:29.801Z,9.00
2018-07-26T08:43:01.060Z,10.00
2018-07-26T08:45:32.855Z,10.00
2018-07-26T08:48:07.346Z,10.67
2018-07-26T08:50:38.724Z,10.33
2018-07-26T08:53:11.211Z,10.00
2018-07-26T08:55:42.611Z,10.67
2018-07-26T08:58:17.345Z,9.00
2018-07-26T09:00:49.928Z,9.33
2018-07-26T09:03:21.386Z,9.33
2018-07-26T09:05:53.662Z,9.00
2018-07-26T09:08:32.016Z,9.25
2018-07-26T09:11:08.696Z,11.00
2018-07-26T09:13:41.433Z,10.00
2018-07-26T09:16:14.508Z,10.33
2018-07-26T09:18:46.025Z,10.00
2018-07-26T09:21:17.441Z,10.00
2018-07-26T09:23:50.001Z,9.00
2018-07-26T09:26:22.239Z,12.00
2018-07-26T09:28:55.984Z,9.50
2018-07-26T09:31:29.271Z,9.25
2018-07-26T09:34:01.537Z,9.00
2018-07-26T09:36:36.813Z,8.33
2018-07-26T09:39:13.584Z,9.33
2018-07-26T09:41:47.353Z,9.00
2018-07-26T09:44:22.455Z,8.33
2018-07-26T09:46:54.857Z,9.67
2018-07-26T09:49:29.211Z,8.40
2018-07-26T09:52:04.643Z,8.67
2018-07-26T09:54:36.823Z,7.00
2018-07-26T09:57:12.387Z,8.00
2018-07-26T09:59:45.240Z,8.00
2018-07-26T10:02:24.962Z,7.33
2018-07-26T10:05:04.926Z,8.00
2018-07-26T10:07:45.186Z,6.60
2018-07-26T10:10:24.104Z,7.25
2018-07-26T10:13:10.272Z,7.00
2018-07-26T10:15:43.616Z,5.33
2018-07-26T10:18:18.476Z,6.00
2018-07-26T10:20:52.325Z,6.83
2018-07-26T10:23:27.193Z,6.33
2018-07-26T10:26:02.222Z,6.43
2018-07-26T10:28:35.772Z,6.80
2018-07-26T10:31:12.246Z,6.14
2018-07-26T10:33:45.346Z,6.00
2018-07-26T10:36:17.535Z,6.60
2018-07-26T10:38:52.760Z,5.57
2018-07-26T10:41:26.174Z,5.80
2018-07-26T10:44:03.704Z,6.71
2018-07-26T10:46:47.290Z,6.80
2018-07-26T10:49:20.375Z,6.00
2018-07-26T10:51:52.594Z,6.00
2018-07-26T10:54:25.757Z,6.00
2018-07-26T10:56:58.962Z,6.40
2018-07-26T10:59:32.915Z,6.67
2018-07-26T11:02:05.146Z,6.00
2018-07-26T11:04:39.871Z,5.00
2018-07-26T11:07:13.278Z,6.60
2018-07-26T11:09:48.097Z,5.33
2018-07-26T11:12:24.036Z,6.43
2018-07-26T11:15:07.368Z,6.67
2018-07-26T11:17:41.232Z,5.00
2018-07-26T11:20:22.472Z,5.83
2018-07-26T11:22:56.939Z,6.00
2018-07-26T11:25:31.204Z,6.00
2018-07-26T11:28:04.852Z,6.00
2018-07-26T11:30:40.387Z,5.33
2018-07-26T11:33:14.370Z,6.33
2018-07-26T11:35:47.904Z,5.40
2018-07-26T11:38:20.431Z,5.20
2018-07-26T11:40:55.841Z,5.43
2018-07-26T11:43:29.760Z,5.00
2018-07-26T11:46:03.946Z,6.00
2018-07-26T11:48:41.336Z,5.83
2018-07-26T11:51:17.597Z,5.00
2018-07-26T11:53:55.664Z,5.83
2018-07-26T11:56:30.541Z,5.50
2018-07-26T11:59:05.231Z,4.17
2018-07-26T12:01:40.461Z,4.00
2018-07-26T12:04:24.021Z,4.67
2018-07-26T12:07:01.886Z,6.17
2018-07-26T12:09:36.017Z,6.00
2018-07-26T12:12:12.641Z,5.00
2018-07-26T12:14:53.600Z,5.50
2018-07-26T12:17:32.545Z,4.00
2018-07-26T12:20:07.644Z,4.17
2018-07-26T12:22:43.702Z,4.00
2018-07-26T12:25:19.757Z,4.33
2018-07-26T12:27:55.338Z,4.83
2018-07-26T12:30:36.572Z,4.17
2018-07-26T12:33:14.995Z,3.17
2018-07-26T12:35:50.446Z,4.00
2018-07-26T12:38:26.376Z,3.67
2018-07-26T12:41:00.702Z,3.00
2018-07-26T12:43:34.387Z,2.67
2018-07-26T12:46:09.350Z,4.17
2018-07-26T12:48:44.280Z,3.67
2018-07-26T12:51:21.305Z,3.83
2018-07-26T12:53:57.646Z,5.00
2018-07-26T12:56:34.628Z,3.50
2018-07-26T12:59:10.932Z,4.00
2018-07-26T13:01:45.973Z,3.83
2018-07-26T13:04:19.333Z,5.67
2018-07-26T13:06:53.962Z,4.00
2018-07-26T13:09:28.268Z,4.83
2018-07-26T13:12:03.323Z,4.50
2018-07-26T13:14:38.585Z,4.00
2018-07-26T13:17:13.965Z,4.67
2018-07-26T13:19:47.668Z,5.33
2018-07-26T13:22:22.720Z,4.00
2018-07-26T13:25:00.318Z,5.83
2018-07-26T13:27:36.752Z,5.50
2018-07-26T13:30:12.208Z,4.17
2018-07-26T13:32:49.072Z,5.00
2018-07-26T13:35:24.577Z,4.50
2018-07-26T13:37:58.357Z,5.00
2018-07-26T13:40:32.964Z,4.50
2018-07-26T13:43:07.532Z,4.50
2018-07-26T13:45:41.009Z,4.33
2018-07-26T13:48:15.730Z,4.83
2018-07-26T13:50:51.468Z,4.83
2018-07-26T13:53:28.096Z,5.00
2018-07-26T13:56:05.649Z,5.00
2018-07-26T13:58:39.135Z,4.33
2018-07-26T14:01:17.229Z,5.00
2018-07-26T14:03:56.126Z,5.43
2018-07-26T14:06:30.617Z,5.00
2018-07-26T14:09:10.314Z,5.83
2018-07-26T14:11:44.853Z,4.50
2018-07-26T14:14:19.080Z,5.00
2018-07-26T14:16:53.908Z,4.50
2018-07-26T14:19:28.603Z,4.33
2018-07-26T14:22:06.258Z,4.33
2018-07-26T14:24:41.591Z,4.00
2018-07-26T14:27:24.970Z,3.00
2018-07-26T14:30:05.742Z,4.33
2018-07-26T14:32:50.783Z,5.57
2018-07-26T14:35:33.597Z,5.00
2018-07-26T14:38:10.183Z,5.17
2018-07-26T14:40:49.988Z,4.83
2018-07-26T14:43:24.394Z,5.00
2018-07-26T14:45:57.937Z,5.00
2018-07-26T14:48:37.474Z,5.00
2018-07-26T14:51:16.385Z,4.17
2018-07-26T14:53:55.357Z,5.00
2018-07-26T14:56:31.388Z,5.57
2018-07-26T14:59:12.164Z,5.57
2018-07-26T15:01:49.812Z,6.43
2018-07-26T15:04:26.318Z,4.50
2018-07-26T15:07:06.246Z,5.00
2018-07-26T15:09:44.266Z,5.50
2018-07-26T15:12:25.805Z,4.17
2018-07-26T15:15:08.392Z,5.00
2018-07-26T15:17:43.835Z,4.67
2018-07-26T15:20:17.600Z,5.00
2018-07-26T15:22:51.040Z,4.17
2018-07-26T15:25:28.123Z,3.17
2018-07-26T15:28:02.282Z,4.00
2018-07-26T15:30:36.272Z,4.00
2018-07-26T15:33:10.317Z,4.67
2018-07-26T15:35:46.968Z,4.00
2018-07-26T15:38:22.164Z,4.50
2018-07-26T15:40:56.044Z,4.50
2018-07-26T15:43:30.656Z,4.17
2018-07-26T15:46:10.606Z,4.00
2018-07-26T15:48:46.554Z,3.33
2018-07-26T15:51:21.229Z,4.33
2018-07-26T15:53:57.971Z,3.67
2018-07-26T15:56:31.774Z,5.00
2018-07-26T15:59:07.617Z,5.33
2018-07-26T16:01:41.906Z,5.83
2018-07-26T16:04:16.372Z,4.33
2018-07-26T16:06:52.504Z,5.00
2018-07-26T16:09:27.623Z,5.17
2018-07-26T16:12:01.585Z,5.83
2018-07-26T16:14:39.422Z,5.50
2018-07-26T16:17:14.228Z,5.00
2018-07-26T16:19:48.065Z,4.67
2018-07-26T16:22:26.631Z,5.17
2018-07-26T16:25:00.814Z,4.00
2018-07-26T16:27:36.570Z,4.83
2018-07-26T16:30:19.302Z,4.17
2018-07-26T16:32:55.012Z,4.17
2018-07-26T16:35:28.326Z,4.00
2018-07-26T16:38:04.026Z,4.33
2018-07-26T16:40:40.200Z,4.17
2018-07-26T16:43:15.604Z,3.17
2018-07-26T16:45:50.095Z,2.83
2018-07-26T16:48:24.337Z,3.50
2018-07-26T16:50:58.620Z,3.83
2018-07-26T16:53:33.720Z,4.17
2018-07-26T16:56:08.615Z,3.33
2018-07-26T16:58:43.666Z,4.33
2018-07-26T17:01:18.907Z,4.67
2018-07-26T17:03:55.582Z,4.00
2018-07-26T17:09:10.593Z,3.83
2018-07-26T17:11:46.096Z,4.50
2018-07-26T17:14:37.261Z,4.00
2018-07-26T17:17:11.620Z,4.00
2018-07-26T17:19:45.591Z,4.00
2018-07-26T17:22:18.012Z,4.20
2018-07-26T17:24:53.916Z,3.00
2018-07-26T17:27:27.991Z,3.67
2018-07-26T17:30:03.085Z,4.00
2018-07-26T17:32:43.217Z,3.33
2018-07-26T17:35:18.815Z,3.00
2018-07-26T17:37:52.531Z,4.00
2018-07-26T17:40:25.919Z,4.00
2018-07-26T17:42:59.319Z,5.00
2018-07-26T17:45:33.433Z,4.00
2018-07-26T17:48:07.546Z,5.00
2018-07-26T17:50:41.803Z,5.67
2018-07-26T17:53:18.423Z,3.83
2018-07-26T17:55:51.947Z,4.00
2018-07-26T17:58:27.674Z,4.00
2018-07-26T18:01:01.762Z,4.83
2018-07-26T18:03:37.336Z,5.67
2018-07-26T18:06:11.807Z,4.67
2018-07-26T18:08:51.636Z,4.83
2018-07-26T18:11:27.427Z,4.00
2018-07-26T18:14:02.041Z,5.67
2018-07-26T18:16:36.665Z,4.83
2018-07-26T18:19:11.583Z,3.50
2018-07-26T18:21:45.682Z,4.50
2018-07-26T18:24:20.562Z,4.50
2018-07-26T18:26:53.921Z,4.50
2018-07-26T18:29:28.369Z,4.67
2018-07-26T18:32:05.352Z,4.50
2018-07-26T18:34:42.444Z,5.00
2018-07-26T18:37:17.591Z,5.17
2018-07-26T18:39:51.318Z,4.33
2018-07-26T18:42:26.234Z,5.00
2018-07-26T18:45:09.432Z,4.00
2018-07-26T18:47:44.216Z,4.83
2018-07-26T18:50:20.276Z,5.71
2018-07-26T18:52:55.657Z,5.00
2018-07-26T18:55:28.454Z,5.60
2018-07-26T18:58:02.491Z,5.17
2018-07-26T19:00:36.658Z,5.86
2018-07-26T19:03:10.237Z,5.50
2018-07-26T19:05:43.476Z,7.00
2018-07-26T19:08:18.246Z,4.67
2018-07-26T19:10:52.153Z,6.00
2018-07-26T19:13:24.705Z,6.60
2018-07-26T19:15:58.718Z,4.83
2018-07-26T19:18:33.278Z,5.67
2018-07-26T19:21:08.140Z,6.20
2018-07-26T19:23:41.869Z,7.25
2018-07-26T19:26:18.159Z,6.71
2018-07-26T19:28:51.544Z,5.40
2018-07-26T19:31:26.526Z,6.40
2018-07-26T19:34:06.515Z,5.17
2018-07-26T19:36:42.621Z,6.29
2018-07-26T19:39:15.694Z,4.40
2018-07-26T19:41:49.596Z,6.00
2018-07-26T19:44:23.173Z,11.00
2018-07-26T19:46:58.441Z,6.29
2018-07-26T19:49:32.613Z,6.43
2018-07-26T19:52:05.724Z,7.00
2018-07-26T19:54:39.388Z,6.40
2018-07-26T19:57:13.538Z,6.00
2018-07-26T19:59:51.273Z,6.00
2018-07-26T20:02:27.347Z,5.17
2018-07-26T20:05:01.160Z,6.00
2018-07-26T20:07:36.673Z,6.86
2018-07-26T20:10:12.368Z,8.00
2018-07-26T20:12:44.794Z,7.67
2018-07-26T20:15:22.253Z,6.00
2018-07-26T20:17:58.824Z,6.00
2018-07-26T20:20:30.464Z,6.67
2018-07-26T20:23:07.420Z,6.00
2018-07-26T20:25:46.360Z,6.00
2018-07-26T20:28:24.837Z,6.00
2018-07-26T20:31:02.449Z,6.33
2018-07-26T20:33:36.083Z,6.00
2018-07-26T20:36:10.605Z,5.86
2018-07-26T20:38:47.805Z,6.71
2018-07-26T20:41:20.959Z,6.00
2018-07-26T20:43:57.720Z,7.57
2018-07-26T20:46:31.258Z,6.00
2018-07-26T20:49:04.393Z,7.00
2018-07-26T20:51:39.913Z,5.86
2018-07-26T20:54:14.111Z,6.86
2018-07-26T20:56:48.622Z,5.57
2018-07-26T20:59:23.825Z,6.00
2018-07-26T21:01:58.971Z,6.00
2018-07-26T21:04:32.095Z,5.40
2018-07-26T21:07:05.385Z,5.40
2018-07-26T21:09:40.430Z,5.50
2018-07-26T21:12:16.019Z,5.67
2018-07-26T21:14:50.514Z,5.50
2018-07-26T21:17:24.335Z,5.00
2018-07-26T21:19:59.672Z,5.17
2018-07-26T21:22:35.269Z,5.40
2018-07-26T21:25:18.993Z,5.29
2018-07-26T21:27:52.949Z,6.00
2018-07-26T21:30:27.336Z,5.00
2018-07-26T21:33:03.382Z,5.83
2018-07-26T21:35:37.303Z,6.00
2018-07-26T21:38:13.162Z,4.83
2018-07-26T21:41:01.206Z,5.00
2018-07-26T21:43:37.209Z,5.17
2018-07-26T21:46:11.357Z,4.17
2018-07-26T21:48:48.710Z,5.00
2018-07-26T21:51:23.268Z,4.80
2018-07-26T21:54:13.401Z,4.83
2018-07-26T21:56:47.316Z,5.50
2018-07-26T21:59:24.893Z,4.00
2018-07-26T22:01:57.084Z,5.00
2018-07-26T22:04:30.323Z,4.17
2018-07-26T22:07:01.886Z,4.67
2018-07-26T22:09:35.712Z,5.00
2018-07-26T22:12:10.065Z,4.67
2018-07-26T22:17:21.322Z,4.00
2018-07-26T22:19:58.626Z,5.83
2018-07-26T22:22:33.110Z,5.00
2018-07-26T22:25:09.232Z,4.20
2018-07-26T22:27:42.771Z,4.33
2018-07-26T22:30:20.124Z,4.67
2018-07-26T22:32:55.794Z,5.00
2018-07-26T22:35:29.363Z,4.83
2018-07-26T22:38:02.838Z,5.00
2018-07-26T22:40:36.272Z,5.67
2018-07-26T22:43:14.685Z,5.67
2018-07-26T22:45:49.026Z,5.00
2018-07-26T22:48:24.634Z,5.57
2018-07-26T22:50:58.039Z,4.83
2018-07-26T22:53:31.763Z,5.20
2018-07-26T22:56:05.988Z,5.00
2018-07-26T22:58:42.631Z,4.00
2018-07-26T23:01:15.232Z,6.00
2018-07-26T23:03:49.064Z,4.83
2018-07-26T23:06:24.499Z,5.00
2018-07-26T23:09:00.645Z,5.00
2018-07-26T23:11:37.286Z,5.33
2018-07-26T23:14:11.657Z,5.00
2018-07-26T23:16:45.449Z,4.67
2018-07-26T23:19:21.454Z,6.00
2018-07-26T23:21:55.822Z,5.17
2018-07-26T23:24:31.922Z,5.71
2018-07-26T23:27:06.223Z,6.00
2018-07-26T23:29:38.731Z,6.00
2018-07-26T23:32:11.793Z,5.33
2018-07-26T23:34:45.781Z,6.20
2018-07-26T23:37:20.816Z,5.29
2018-07-26T23:39:55.011Z,6.00
2018-07-26T23:42:30.683Z,5.00
2018-07-26T23:45:02.233Z,6.00
2018-07-26T23:47:38.463Z,5.80
2018-07-26T23:50:21.463Z,5.00
2018-07-26T23:52:57.424Z,5.00
2018-07-26T23:55:31.123Z,6.00
2018-07-26T23:58:05.413Z,5.71
